createdAt,value
2018-06-16T00:02:18.084Z,7.40
2018-06-16T00:04:46.174Z,7.50
2018-06-16T00:07:14.288Z,8.13
2018-06-16T00:09:42.368Z,7.57
2018-06-16T00:12:10.444Z,7.00
2018-06-16T00:14:38.529Z,6.93
2018-06-16T00:17:06.608Z,7.33
2018-06-16T00:19:34.701Z,7.80
2018-06-16T00:22:02.902Z,7.50
2018-06-16T00:24:30.990Z,6.80
2018-06-16T00:26:59.093Z,6.90
2018-06-16T00:29:27.176Z,6.73
2018-06-16T00:31:55.262Z,7.73
2018-06-16T00:34:23.353Z,8.10
2018-06-16T00:36:51.438Z,6.70
2018-06-16T00:39:19.529Z,8.53
2018-06-16T00:41:47.604Z,7.93
2018-06-16T00:44:15.684Z,7.70
2018-06-16T00:46:43.793Z,7.87
2018-06-16T00:49:11.876Z,7.43
2018-06-16T00:51:39.953Z,7.43
2018-06-16T00:54:08.042Z,7.50
2018-06-16T00:56:36.115Z,6.93
2018-06-16T00:59:04.369Z,6.93
2018-06-16T01:01:32.450Z,7.63
2018-06-16T01:04:00.529Z,8.40
2018-06-16T01:06:28.604Z,8.00
2018-06-16T01:08:56.701Z,8.33
2018-06-16T01:11:24.780Z,8.57
2018-06-16T01:13:52.867Z,7.50
2018-06-16T01:19:11.750Z,8.40
2018-06-16T01:21:39.946Z,8.50
2018-06-16T01:24:08.056Z,9.70
2018-06-16T01:26:36.142Z,10.80
2018-06-16T01:29:04.213Z,8.17
2018-06-16T01:31:32.318Z,8.90
2018-06-16T01:34:00.398Z,8.90
2018-06-16T01:36:28.488Z,9.63
2018-06-16T01:38:56.590Z,10.10
2018-06-16T01:41:24.684Z,8.80
2018-06-16T01:43:52.764Z,9.20
2018-06-16T01:46:20.854Z,9.20
2018-06-16T01:48:48.934Z,9.47
2018-06-16T01:51:17.031Z,9.33
2018-06-16T01:53:45.114Z,10.27
2018-06-16T01:56:13.207Z,8.50
2018-06-16T01:58:41.281Z,9.60
2018-06-16T02:01:09.365Z,9.30
2018-06-16T02:03:37.458Z,9.07
2018-06-16T02:06:05.558Z,8.60
2018-06-16T02:08:33.633Z,8.60
2018-06-16T02:11:01.727Z,9.83
2018-06-16T02:13:29.800Z,9.23
2018-06-16T02:15:57.897Z,9.13
2018-06-16T02:18:25.988Z,9.80
2018-06-16T02:20:54.068Z,10.27
2018-06-16T02:23:22.149Z,9.00
2018-06-16T02:25:50.242Z,9.17
2018-06-16T02:28:18.325Z,10.10
2018-06-16T02:30:46.413Z,9.30
2018-06-16T02:33:14.498Z,9.83
2018-06-16T02:35:42.590Z,9.43
2018-06-16T02:38:10.676Z,9.50
2018-06-16T02:40:38.774Z,9.97
2018-06-16T02:43:06.855Z,9.60
2018-06-16T02:45:34.969Z,9.90
2018-06-16T02:48:03.386Z,10.80
2018-06-16T02:50:31.588Z,9.97
2018-06-16T02:52:59.570Z,10.47
2018-06-16T02:55:27.654Z,9.80
2018-06-16T02:57:55.733Z,10.20
2018-06-16T03:00:23.826Z,10.23
2018-06-16T03:02:51.911Z,9.83
2018-06-16T03:05:19.997Z,9.77
2018-06-16T03:07:48.098Z,10.30
2018-06-16T03:10:16.182Z,9.70
2018-06-16T03:12:44.272Z,9.10
2018-06-16T03:15:12.379Z,8.90
2018-06-16T03:17:40.428Z,8.40
2018-06-16T03:20:08.505Z,8.80
2018-06-16T03:22:36.374Z,9.50
2018-06-16T03:25:04.489Z,9.53
2018-06-16T03:27:32.577Z,9.03
2018-06-16T03:30:00.657Z,10.90
2018-06-16T03:32:28.746Z,10.80
2018-06-16T03:34:56.821Z,10.10
2018-06-16T03:37:24.934Z,9.90
2018-06-16T03:39:53.009Z,9.50
2018-06-16T03:42:21.110Z,9.73
2018-06-16T03:44:49.202Z,10.80
2018-06-16T03:47:17.315Z,10.23
2018-06-16T03:49:45.397Z,10.70
2018-06-16T03:52:13.670Z,10.73
2018-06-16T03:54:41.745Z,9.93
2018-06-16T03:57:09.854Z,10.10
2018-06-16T03:59:37.933Z,10.50
2018-06-16T04:02:05.805Z,10.87
2018-06-16T04:04:33.882Z,10.97
2018-06-16T04:07:01.977Z,12.03
2018-06-16T04:09:30.056Z,9.90
2018-06-16T04:11:58.146Z,9.50
2018-06-16T04:14:26.233Z,10.57
2018-06-16T04:16:54.501Z,11.03
2018-06-16T04:19:22.590Z,9.97
2018-06-16T04:21:50.677Z,10.93
2018-06-16T04:24:18.802Z,9.03
2018-06-16T04:26:46.902Z,9.23
2018-06-16T04:29:14.986Z,9.87
2018-06-16T04:31:43.204Z,10.70
2018-06-16T04:34:11.262Z,9.10
2018-06-16T04:36:39.566Z,9.33
2018-06-16T04:39:08.974Z,10.37
2018-06-16T04:41:37.064Z,11.10
2018-06-16T04:44:05.166Z,10.80
2018-06-16T04:46:33.258Z,10.87
2018-06-16T04:49:01.355Z,10.80
2018-06-16T04:51:29.446Z,10.87
2018-06-16T04:53:57.549Z,11.03
2018-06-16T04:56:25.653Z,10.30
2018-06-16T04:58:53.760Z,11.60
2018-06-16T05:01:21.853Z,10.70
2018-06-16T05:03:49.724Z,10.87
2018-06-16T05:06:17.822Z,10.90
2018-06-16T05:08:45.930Z,10.20
2018-06-16T05:11:14.018Z,10.17
2018-06-16T05:13:42.113Z,8.30
2018-06-16T05:16:10.197Z,10.47
2018-06-16T05:18:38.290Z,9.30
2018-06-16T05:21:06.381Z,9.53
2018-06-16T05:23:34.594Z,9.20
2018-06-16T05:26:02.672Z,9.47
2018-06-16T05:28:30.781Z,9.60
2018-06-16T05:30:58.870Z,9.40
2018-06-16T05:33:26.966Z,10.37
2018-06-16T05:35:55.054Z,9.97
2018-06-16T05:38:23.146Z,8.03
2018-06-16T05:40:51.217Z,7.70
2018-06-16T05:43:19.534Z,9.17
2018-06-16T05:45:47.614Z,8.47
2018-06-16T05:48:16.773Z,10.27
2018-06-16T05:50:44.862Z,10.57
2018-06-16T05:53:12.946Z,10.70
2018-06-16T05:55:41.021Z,10.47
2018-06-16T05:58:09.118Z,9.63
2018-06-16T06:00:37.249Z,9.97
2018-06-16T06:03:05.486Z,11.93
2018-06-16T06:05:33.572Z,11.60
2018-06-16T06:08:01.674Z,9.40
2018-06-16T06:10:29.819Z,10.67
2018-06-16T06:12:57.843Z,10.13
2018-06-16T06:15:25.922Z,12.60
2018-06-16T06:17:54.021Z,11.70
2018-06-16T06:20:22.110Z,10.80
2018-06-16T06:22:50.233Z,11.90
2018-06-16T06:25:18.325Z,11.80
2018-06-16T06:27:46.402Z,14.13
2018-06-16T06:30:14.649Z,12.23
2018-06-16T06:32:42.730Z,12.03
2018-06-16T06:35:10.813Z,11.97
2018-06-16T06:37:38.953Z,13.13
2018-06-16T06:40:07.309Z,12.20
2018-06-16T06:42:35.397Z,14.53
2018-06-16T06:45:03.498Z,11.73
2018-06-16T06:47:31.587Z,12.80
2018-06-16T06:49:59.698Z,11.80
2018-06-16T06:52:27.790Z,12.97
2018-06-16T06:54:55.888Z,13.80
2018-06-16T06:57:23.980Z,14.53
2018-06-16T06:59:52.081Z,13.60
2018-06-16T07:02:20.174Z,12.60
2018-06-16T07:04:48.281Z,14.50
2018-06-16T07:07:16.370Z,13.43
2018-06-16T07:09:44.482Z,14.10
2018-06-16T07:12:12.565Z,13.60
2018-06-16T07:14:40.676Z,13.57
2018-06-16T07:17:08.765Z,11.80
2018-06-16T07:19:36.869Z,12.40
2018-06-16T07:22:04.966Z,13.60
2018-06-16T07:24:33.060Z,12.37
2018-06-16T07:27:01.398Z,12.87
2018-06-16T07:29:29.426Z,12.37
2018-06-16T07:31:57.509Z,12.17
2018-06-16T07:34:25.622Z,13.73
2018-06-16T07:36:53.720Z,12.90
2018-06-16T07:39:21.822Z,13.33
2018-06-16T07:41:49.913Z,15.60
2018-06-16T07:44:18.014Z,14.00
2018-06-16T07:46:46.110Z,15.53
2018-06-16T07:49:14.210Z,15.20
2018-06-16T07:51:42.297Z,15.23
2018-06-16T07:54:10.518Z,16.07
2018-06-16T07:56:38.657Z,16.07
2018-06-16T07:59:06.731Z,13.23
2018-06-16T08:01:34.809Z,17.83
2018-06-16T08:04:02.913Z,20.63
2018-06-16T08:06:31.002Z,19.73
2018-06-16T08:08:59.083Z,20.10
2018-06-16T08:11:27.177Z,20.23
2018-06-16T08:13:55.260Z,20.20
2018-06-16T08:16:23.394Z,20.23
2018-06-16T08:18:51.482Z,18.20
2018-06-16T08:21:19.605Z,20.20
2018-06-16T08:23:47.901Z,18.80
2018-06-16T08:26:16.014Z,16.90
2018-06-16T08:28:44.107Z,20.93
2018-06-16T08:31:12.208Z,17.80
2018-06-16T08:33:40.346Z,17.43
2018-06-16T08:36:08.469Z,16.23
2018-06-16T08:38:36.569Z,19.77
2018-06-16T08:41:04.665Z,18.10
2018-06-16T08:43:32.754Z,16.80
2018-06-16T08:46:00.854Z,16.67
2018-06-16T08:48:28.941Z,16.70
2018-06-16T08:50:57.029Z,19.03
2018-06-16T08:53:24.965Z,16.67
2018-06-16T08:55:53.061Z,15.63
2018-06-16T08:58:21.141Z,17.13
2018-06-16T09:00:49.238Z,17.37
2018-06-16T09:03:17.366Z,15.67
2018-06-16T09:05:45.462Z,17.20
2018-06-16T09:08:13.326Z,17.87
2018-06-16T09:10:41.425Z,18.93
2018-06-16T09:13:09.522Z,16.40
2018-06-16T09:15:37.617Z,19.90
2018-06-16T09:18:05.871Z,19.73
2018-06-16T09:20:33.960Z,19.20
2018-06-16T09:23:02.066Z,20.03
2018-06-16T09:25:30.402Z,17.73
2018-06-16T09:27:58.489Z,17.37
2018-06-16T09:30:26.592Z,16.17
2018-06-16T09:32:54.686Z,15.00
2018-06-16T09:35:22.778Z,15.20
2018-06-16T09:37:50.880Z,14.57
2018-06-16T09:40:18.997Z,15.10
2018-06-16T09:42:47.081Z,15.63
2018-06-16T09:45:15.174Z,14.40
2018-06-16T09:47:43.267Z,17.83
2018-06-16T09:50:11.125Z,14.07
2018-06-16T09:52:39.213Z,15.33
2018-06-16T09:55:07.312Z,17.13
2018-06-16T09:57:35.419Z,15.03
2018-06-16T10:00:03.486Z,16.80
2018-06-16T10:02:31.578Z,17.30
2018-06-16T10:04:59.661Z,17.30
2018-06-16T10:07:27.752Z,15.63
2018-06-16T10:09:55.849Z,17.00
2018-06-16T10:12:23.941Z,17.67
2018-06-16T10:14:52.021Z,17.40
2018-06-16T10:17:20.120Z,13.87
2018-06-16T10:19:48.233Z,13.07
2018-06-16T10:22:16.318Z,14.10
2018-06-16T10:24:44.405Z,16.00
2018-06-16T10:27:12.506Z,17.57
2018-06-16T10:29:40.599Z,17.50
2018-06-16T10:32:08.679Z,14.20
2018-06-16T10:34:36.766Z,13.47
2018-06-16T10:37:04.869Z,12.77
2018-06-16T10:39:32.966Z,10.20
2018-06-16T10:42:01.062Z,12.03
2018-06-16T10:44:29.162Z,12.90
2018-06-16T10:46:57.247Z,11.17
2018-06-16T10:49:25.338Z,12.47
2018-06-16T10:51:53.215Z,9.37
2018-06-16T10:54:21.290Z,10.70
2018-06-16T10:56:49.375Z,12.93
2018-06-16T10:59:17.469Z,12.70
2018-06-16T11:01:45.562Z,12.77
2018-06-16T11:04:13.678Z,15.00
2018-06-16T11:06:41.772Z,11.20
2018-06-16T11:09:10.592Z,9.43
2018-06-16T11:11:38.745Z,10.57
2018-06-16T11:14:07.237Z,9.67
2018-06-16T11:16:35.314Z,10.33
2018-06-16T11:19:03.456Z,8.47
2018-06-16T11:21:31.546Z,10.63
2018-06-16T11:23:59.684Z,11.40
2018-06-16T11:26:27.773Z,10.53
2018-06-16T11:28:55.862Z,9.40
2018-06-16T11:31:23.952Z,10.40
2018-06-16T11:33:52.057Z,9.63
2018-06-16T11:36:20.143Z,9.77
2018-06-16T11:38:48.239Z,9.17
2018-06-16T11:41:16.306Z,7.80
2018-06-16T11:43:44.387Z,8.20
2018-06-16T11:46:12.488Z,7.07
2018-06-16T11:48:40.608Z,7.60
2018-06-16T11:51:08.647Z,7.90
2018-06-16T11:53:37.069Z,7.00
2018-06-16T11:56:05.190Z,7.27
2018-06-16T11:58:33.278Z,6.60
2018-06-16T12:01:01.354Z,8.57
2018-06-16T12:03:29.435Z,7.67
2018-06-16T12:05:57.502Z,7.13
2018-06-16T12:08:25.602Z,8.90
2018-06-16T12:10:53.678Z,8.50
2018-06-16T12:13:22.048Z,7.23
2018-06-16T12:15:50.120Z,9.93
2018-06-16T12:18:18.194Z,8.10
2018-06-16T12:20:46.301Z,9.00
2018-06-16T12:23:14.386Z,8.77
2018-06-16T12:25:42.483Z,9.37
2018-06-16T12:28:10.560Z,9.97
2018-06-16T12:30:38.646Z,7.50
2018-06-16T12:33:06.733Z,6.37
2018-06-16T12:35:34.822Z,5.40
2018-06-16T12:38:02.897Z,6.30
2018-06-16T12:40:31.005Z,6.47
2018-06-16T12:42:59.171Z,6.00
2018-06-16T12:45:27.265Z,5.90
2018-06-16T12:47:55.354Z,6.73
2018-06-16T12:50:23.930Z,5.40
2018-06-16T12:52:52.004Z,6.17
2018-06-16T12:55:20.077Z,6.33
2018-06-16T12:57:48.236Z,5.97
2018-06-16T13:00:16.263Z,5.60
2018-06-16T13:02:44.338Z,5.47
2018-06-16T13:05:12.431Z,5.60
2018-06-16T13:07:40.498Z,6.10
2018-06-16T13:10:08.594Z,5.37
2018-06-16T13:12:36.674Z,5.23
2018-06-16T13:15:05.138Z,5.10
2018-06-16T13:17:33.201Z,5.00
2018-06-16T13:20:01.292Z,5.77
2018-06-16T13:22:29.364Z,6.00
2018-06-16T13:24:57.470Z,5.40
2018-06-16T13:27:25.461Z,6.57
2018-06-16T13:29:53.554Z,6.53
2018-06-16T13:32:21.666Z,5.67
2018-06-16T13:34:49.722Z,6.20
2018-06-16T13:37:17.825Z,5.20
2018-06-16T13:39:45.893Z,5.80
2018-06-16T13:42:13.978Z,7.63
2018-06-16T13:44:41.845Z,6.90
2018-06-16T13:47:09.939Z,5.93
2018-06-16T13:49:37.992Z,7.00
2018-06-16T13:52:06.202Z,6.27
2018-06-16T13:54:34.293Z,6.90
2018-06-16T13:57:02.375Z,7.93
2018-06-16T13:59:30.465Z,6.80
2018-06-16T14:01:58.536Z,7.40
2018-06-16T14:04:26.397Z,6.70
2018-06-16T14:06:54.484Z,7.37
2018-06-16T14:09:22.562Z,7.30
2018-06-16T14:11:50.658Z,5.90
2018-06-16T14:14:18.746Z,6.57
2018-06-16T14:16:46.825Z,6.50
2018-06-16T14:19:14.892Z,7.30
2018-06-16T14:21:42.982Z,6.70
2018-06-16T14:24:11.221Z,7.30
2018-06-16T14:26:39.293Z,7.33
2018-06-16T14:29:07.373Z,8.80
2018-06-16T14:31:35.454Z,7.20
2018-06-16T14:34:03.538Z,6.80
2018-06-16T14:36:31.618Z,6.80
2018-06-16T14:38:59.705Z,7.73
2018-06-16T14:41:27.794Z,7.20
2018-06-16T14:43:55.866Z,6.47
2018-06-16T14:46:23.954Z,9.03
2018-06-16T14:48:52.022Z,8.77
2018-06-16T14:51:20.114Z,10.67
2018-06-16T14:53:48.176Z,7.70
2018-06-16T14:56:16.262Z,7.40
2018-06-16T14:58:44.341Z,7.17
2018-06-16T15:01:12.454Z,7.93
2018-06-16T15:03:40.536Z,6.73
2018-06-16T15:06:08.609Z,7.33
2018-06-16T15:08:36.694Z,7.70
2018-06-16T15:11:04.779Z,6.93
2018-06-16T15:13:32.861Z,8.53
2018-06-16T15:16:00.963Z,7.33
2018-06-16T15:18:28.796Z,7.30
2018-06-16T15:20:56.885Z,7.13
2018-06-16T15:23:24.976Z,7.30
2018-06-16T15:25:53.082Z,8.43
2018-06-16T15:28:21.178Z,8.90
2018-06-16T15:30:49.282Z,9.47
2018-06-16T15:33:17.357Z,7.37
2018-06-16T15:35:45.446Z,8.77
2018-06-16T15:38:13.641Z,8.17
2018-06-16T15:40:41.734Z,6.60
2018-06-16T15:43:09.846Z,8.13
2018-06-16T15:45:37.936Z,7.90
2018-06-16T15:48:06.234Z,7.20
2018-06-16T15:50:34.334Z,8.27
2018-06-16T15:53:02.417Z,7.30
2018-06-16T15:55:30.505Z,7.43
2018-06-16T15:57:58.620Z,7.33
2018-06-16T16:00:26.902Z,7.50
2018-06-16T16:02:55.382Z,9.73
2018-06-16T16:05:23.482Z,8.90
2018-06-16T16:07:52.005Z,7.97
2018-06-16T16:10:20.304Z,8.10
2018-06-16T16:12:48.390Z,7.27
2018-06-16T16:15:16.617Z,8.10
2018-06-16T16:17:50.409Z,7.57
2018-06-16T16:20:18.514Z,7.50
2018-06-16T16:22:46.590Z,8.40
2018-06-16T16:25:14.873Z,7.40
2018-06-16T16:27:43.250Z,8.73
2018-06-16T16:30:11.333Z,7.70
2018-06-16T16:32:39.432Z,7.40
2018-06-16T16:35:07.761Z,7.87
2018-06-16T16:37:35.858Z,7.47
2018-06-16T16:40:04.163Z,8.37
2018-06-16T16:42:32.243Z,7.50
2018-06-16T16:45:00.318Z,7.47
2018-06-16T16:47:28.403Z,8.30
2018-06-16T16:49:56.482Z,8.30
2018-06-16T16:52:24.570Z,7.63
2018-06-16T16:54:53.025Z,7.70
2018-06-16T16:57:21.101Z,8.60
2018-06-16T16:59:49.193Z,7.70
2018-06-16T17:02:17.314Z,6.67
2018-06-16T17:04:45.389Z,6.90
2018-06-16T17:07:13.469Z,6.20
2018-06-16T17:09:41.581Z,6.97
2018-06-16T17:12:09.622Z,7.20
2018-06-16T17:14:37.805Z,8.40
2018-06-16T17:17:05.881Z,7.57
2018-06-16T17:19:33.973Z,8.83
2018-06-16T17:22:02.100Z,7.50
2018-06-16T17:24:30.162Z,7.90
2018-06-16T17:26:58.242Z,6.83
2018-06-16T17:29:26.324Z,7.63
2018-06-16T17:31:54.405Z,7.30
2018-06-16T17:34:22.476Z,6.93
2018-06-16T17:36:50.558Z,6.80
2018-06-16T17:39:18.641Z,6.97
2018-06-16T17:41:46.726Z,6.80
2018-06-16T17:44:14.802Z,6.83
2018-06-16T17:46:42.888Z,7.10
2018-06-16T17:49:10.958Z,6.83
2018-06-16T17:51:39.050Z,6.73
2018-06-16T17:54:07.449Z,6.97
2018-06-16T17:56:35.537Z,7.20
2018-06-16T17:59:03.694Z,8.57
2018-06-16T18:01:31.778Z,7.00
2018-06-16T18:03:59.858Z,8.57
2018-06-16T18:06:27.942Z,7.80
2018-06-16T18:08:56.005Z,7.00
2018-06-16T18:11:24.098Z,6.97
2018-06-16T18:13:52.333Z,7.03
2018-06-16T18:16:20.405Z,6.80
2018-06-16T18:18:48.493Z,6.50
2018-06-16T18:21:16.570Z,7.17
2018-06-16T18:23:44.650Z,7.40
2018-06-16T18:26:12.727Z,8.00
2018-06-16T18:28:40.811Z,6.60
2018-06-16T18:31:08.896Z,6.90
2018-06-16T18:33:36.981Z,7.03
2018-06-16T18:36:05.190Z,7.40
2018-06-16T18:38:33.286Z,6.90
2018-06-16T18:41:01.370Z,7.37
2018-06-16T18:43:29.463Z,6.77
2018-06-16T18:45:57.653Z,7.17
2018-06-16T18:48:25.753Z,7.13
2018-06-16T18:50:53.838Z,7.00
2018-06-16T18:53:21.705Z,6.67
2018-06-16T18:55:49.792Z,7.70
2018-06-16T18:58:18.322Z,6.80
2018-06-16T19:00:46.404Z,6.80
2018-06-16T19:03:14.489Z,7.00
2018-06-16T19:05:42.570Z,6.73
2018-06-16T19:08:10.658Z,6.67
2018-06-16T19:10:38.800Z,6.27
2018-06-16T19:13:07.165Z,7.57
2018-06-16T19:15:35.250Z,7.10
2018-06-16T19:18:03.329Z,7.63
2018-06-16T19:20:31.465Z,5.97
2018-06-16T19:22:59.513Z,6.17
2018-06-16T19:25:27.610Z,5.63
2018-06-16T19:27:55.682Z,5.20
2018-06-16T19:30:23.890Z,5.30
2018-06-16T19:32:52.159Z,4.90
2018-06-16T19:35:20.262Z,5.53
2018-06-16T19:37:48.369Z,6.17
2018-06-16T19:40:16.753Z,6.20
2018-06-16T19:42:44.830Z,5.53
2018-06-16T19:45:12.922Z,6.70
2018-06-16T19:47:41.010Z,6.40
2018-06-16T19:50:08.937Z,7.80
2018-06-16T19:52:37.042Z,6.37
2018-06-16T19:55:05.273Z,7.50
2018-06-16T19:57:33.349Z,7.43
2018-06-16T20:00:01.446Z,7.10
2018-06-16T20:02:29.691Z,6.40
2018-06-16T20:04:58.690Z,6.17
2018-06-16T20:07:26.846Z,6.20
2018-06-16T20:09:54.993Z,6.63
2018-06-16T20:12:23.082Z,6.60
2018-06-16T20:14:51.225Z,6.80
2018-06-16T20:17:19.328Z,6.70
2018-06-16T20:19:47.414Z,7.33
2018-06-16T20:22:15.498Z,8.63
2018-06-16T20:24:43.606Z,8.73
2018-06-16T20:27:11.690Z,9.20
2018-06-16T20:29:39.790Z,8.33
2018-06-16T20:32:08.197Z,8.47
2018-06-16T20:34:36.275Z,9.10
2018-06-16T20:37:04.357Z,8.17
2018-06-16T20:39:32.445Z,7.20
2018-06-16T20:42:00.525Z,8.33
2018-06-16T20:44:29.432Z,10.83
2018-06-16T20:46:57.522Z,8.80
2018-06-16T20:49:25.598Z,7.17
2018-06-16T20:51:53.689Z,7.03
2018-06-16T20:54:22.770Z,7.43
2018-06-16T20:56:51.030Z,6.37
2018-06-16T20:59:19.114Z,5.97
2018-06-16T21:01:47.210Z,6.03
2018-06-16T21:04:15.306Z,4.83
2018-06-16T21:06:43.406Z,5.53
2018-06-16T21:09:12.198Z,4.47
2018-06-16T21:11:40.486Z,4.07
2018-06-16T21:14:08.754Z,5.60
2018-06-16T21:16:36.842Z,5.63
2018-06-16T21:19:05.159Z,6.23
2018-06-16T21:21:33.297Z,6.93
2018-06-16T21:24:01.342Z,6.20
2018-06-16T21:26:29.437Z,5.80
2018-06-16T21:28:57.532Z,6.27
2018-06-16T21:31:25.664Z,7.00
2018-06-16T21:33:53.742Z,5.90
2018-06-16T21:36:21.969Z,6.90
2018-06-16T21:38:50.180Z,6.73
2018-06-16T21:41:18.259Z,5.50
2018-06-16T21:43:46.356Z,6.10
2018-06-16T21:46:14.450Z,4.97
2018-06-16T21:48:42.538Z,5.53
2018-06-16T21:51:10.615Z,5.10
2018-06-16T21:53:38.718Z,5.23
2018-06-16T21:56:06.798Z,5.50
2018-06-16T21:58:34.893Z,5.37
2018-06-16T22:01:02.979Z,5.23
2018-06-16T22:03:31.071Z,4.80
2018-06-16T22:05:59.262Z,4.30
2018-06-16T22:08:31.861Z,3.60
2018-06-16T22:11:00.459Z,4.37
2018-06-16T22:13:28.931Z,3.83
2018-06-16T22:15:57.011Z,4.27
2018-06-16T22:18:25.236Z,4.67
2018-06-16T22:20:53.882Z,4.50
2018-06-16T22:23:21.971Z,4.40
2018-06-16T22:25:50.059Z,4.03
2018-06-16T22:28:18.136Z,3.97
2018-06-16T22:30:46.318Z,3.50
2018-06-16T22:33:14.405Z,4.27
2018-06-16T22:35:42.501Z,4.07
2018-06-16T22:38:10.726Z,4.07
2018-06-16T22:40:38.808Z,4.00
2018-06-16T22:43:06.898Z,3.90
2018-06-16T22:45:35.151Z,3.53
2018-06-16T22:48:03.230Z,3.53
2018-06-16T22:50:31.316Z,3.70
2018-06-16T22:52:59.392Z,3.57
2018-06-16T22:55:27.481Z,4.13
2018-06-16T22:57:55.568Z,3.97
2018-06-16T23:00:26.032Z,3.40
2018-06-16T23:02:54.344Z,3.73
2018-06-16T23:05:22.685Z,4.10
2018-06-16T23:07:51.125Z,3.00
2018-06-16T23:10:19.214Z,3.63
2018-06-16T23:12:47.294Z,3.30
2018-06-16T23:15:15.577Z,4.13
2018-06-16T23:17:43.657Z,4.63
2018-06-16T23:20:11.778Z,3.53
2018-06-16T23:22:39.856Z,4.03
2018-06-16T23:25:07.962Z,3.60
2018-06-16T23:27:36.062Z,3.00
2018-06-16T23:30:04.363Z,3.47
2018-06-16T23:32:32.461Z,3.73
2018-06-16T23:35:00.533Z,3.60
2018-06-16T23:37:28.629Z,3.87
2018-06-16T23:39:56.708Z,3.57
2018-06-16T23:42:24.814Z,3.00
2018-06-16T23:44:52.902Z,3.23
2018-06-16T23:47:20.998Z,4.13
2018-06-16T23:49:49.073Z,4.07
2018-06-16T23:52:17.152Z,3.87
2018-06-16T23:54:45.234Z,3.60
2018-06-16T23:57:13.342Z,4.00
2018-06-16T23:59:41.235Z,3.67
